Time;durP1;ratioP1;P1;durP2;ratioP2;P2;SDS_P1;SDS_P2;PMS_P1;PMS_P2;Temp;Humidity;BMP_temperature;BMP_pressure;BME280_temperature;BME280_humidity;BME280_pressure;Samples;Min_cycle;Max_cycle;Signal;HPM_P1;HPM_P2
2023/10/12 00:00:24;;;;;;;12.65;8.15;;;;;;;;;;4826262;29;20049;-77
2023/10/12 00:03:13;;;;;;;15.73;7.78;;;;;;;;;;4832079;29;20045;-78
2023/10/12 00:05:59;;;;;;;15.45;8.60;;;;;;;;;;4832487;29;20037;-79
2023/10/12 00:08:44;;;;;;;18.67;9.20;;;;;;;;;;4826142;29;20466;-77
2023/10/12 00:11:38;;;;;;;15.10;8.25;;;;;;;;;;4831401;29;20049;-76
2023/10/12 00:14:26;;;;;;;12.75;7.70;;;;;;;;;;4818152;29;20497;-77
2023/10/12 00:17:11;;;;;;;13.75;8.02;;;;;;;;;;4825668;29;20393;-80
2023/10/12 00:19:56;;;;;;;12.63;7.47;;;;;;;;;;4833242;29;20398;-81
2023/10/12 00:22:42;;;;;;;14.40;7.55;;;;;;;;;;4826816;29;20402;-79
2023/10/12 00:25:33;;;;;;;11.30;7.68;;;;;;;;;;4828732;29;20428;-79
2023/10/12 00:28:19;;;;;;;14.60;8.10;;;;;;;;;;4826660;29;20401;-79
2023/10/12 00:31:17;;;;;;;13.82;8.23;;;;;;;;;;4818248;29;20905;-80
2023/10/12 00:34:02;;;;;;;10.82;7.25;;;;;;;;;;4817729;29;20038;-79
2023/10/12 00:36:52;;;;;;;14.23;7.32;;;;;;;;;;4817297;29;20061;-79
2023/10/12 00:40:19;;;;;;;12.73;7.57;;;;;;;;;;4818188;29;20049;-78
2023/10/12 00:42:51;;;;;;;12.90;8.27;;;;;;;;;;4825366;29;20397;-79
2023/10/12 00:45:36;;;;;;;12.23;8.13;;;;;;;;;;4826217;29;20041;-78
2023/10/12 00:48:28;;;;;;;14.70;8.10;;;;;;;;;;4825974;29;20458;-77
2023/10/12 00:51:16;;;;;;;11.48;7.78;;;;;;;;;;4831558;29;20053;-79
2023/10/12 00:54:04;;;;;;;11.10;7.38;;;;;;;;;;4818128;29;20042;-78
2023/10/12 00:56:52;;;;;;;11.10;7.18;;;;;;;;;;4831595;29;20462;-79
2023/10/12 00:59:38;;;;;;;12.63;8.05;;;;;;;;;;4817395;29;20492;-78
2023/10/12 01:02:24;;;;;;;11.70;7.90;;;;;;;;;;4816947;29;20528;-81
2023/10/12 01:05:09;;;;;;;11.70;7.70;;;;;;;;;;4831554;29;20056;-80
2023/10/12 01:07:54;;;;;;;13.02;7.22;;;;;;;;;;4817555;29;20052;-78
2023/10/12 01:10:41;;;;;;;12.15;7.47;;;;;;;;;;4831258;29;20414;-79
2023/10/12 01:13:32;;;;;;;12.45;7.45;;;;;;;;;;4831937;29;20068;-80
2023/10/12 01:16:22;;;;;;;8.95;6.57;;;;;;;;;;4817961;29;20073;-79
2023/10/12 01:19:08;;;;;;;11.50;6.22;;;;;;;;;;4825261;29;20482;-79
2023/10/12 01:21:54;;;;;;;11.65;7.22;;;;;;;;;;4824601;29;20525;-78
2023/10/12 01:27:41;;;;;;;10.98;6.88;;;;;;;;;;4817134;29;20041;-77
2023/10/12 01:30:27;;;;;;;12.02;6.60;;;;;;;;;;4825068;29;20050;-79
2023/10/12 01:33:13;;;;;;;9.88;6.50;;;;;;;;;;4817097;29;20463;-78
2023/10/12 01:35:59;;;;;;;12.65;6.93;;;;;;;;;;4831556;29;20413;-78
2023/10/12 01:38:47;;;;;;;14.80;6.80;;;;;;;;;;4817643;29;20054;-79
2023/10/12 01:41:32;;;;;;;12.00;7.03;;;;;;;;;;4817738;29;20057;-78
2023/10/12 01:44:18;;;;;;;13.73;6.82;;;;;;;;;;4825490;29;20060;-80
2023/10/12 01:47:04;;;;;;;9.10;6.40;;;;;;;;;;4830330;29;20060;-78
2023/10/12 01:49:50;;;;;;;11.70;6.85;;;;;;;;;;4831640;29;20469;-78
2023/10/12 01:52:37;;;;;;;10.15;6.55;;;;;;;;;;4824417;29;20417;-78
2023/10/12 01:55:28;;;;;;;13.85;7.05;;;;;;;;;;4831022;29;20041;-79
2023/10/12 01:58:18;;;;;;;11.48;6.90;;;;;;;;;;4824772;29;20053;-78
2023/10/12 02:01:07;;;;;;;10.98;7.28;;;;;;;;;;4817032;29;20064;-79
2023/10/12 02:03:55;;;;;;;12.52;8.15;;;;;;;;;;4817275;29;20069;-78
2023/10/12 02:06:42;;;;;;;14.57;7.68;;;;;;;;;;4816042;29;20403;-79
2023/10/12 02:09:31;;;;;;;11.15;6.70;;;;;;;;;;4830376;29;20058;-77
2023/10/12 02:12:24;;;;;;;12.60;6.60;;;;;;;;;;4816961;29;20065;-78
2023/10/12 02:15:15;;;;;;;9.77;6.75;;;;;;;;;;4816895;29;20482;-78
2023/10/12 02:18:00;;;;;;;11.68;6.82;;;;;;;;;;4818005;29;20049;-80
2023/10/12 02:23:54;;;;;;;12.70;6.45;;;;;;;;;;4830685;29;20792;-79
2023/10/12 02:29:25;;;;;;;13.88;7.38;;;;;;;;;;4830630;29;20057;-77
2023/10/12 02:32:17;;;;;;;11.93;7.45;;;;;;;;;;4816715;29;20053;-78
2023/10/12 02:35:11;;;;;;;11.32;6.50;;;;;;;;;;4818768;29;20060;-79
2023/10/12 02:37:58;;;;;;;9.98;6.88;;;;;;;;;;4820439;29;20057;-79
2023/10/12 02:40:44;;;;;;;11.30;6.70;;;;;;;;;;4820496;29;20061;-80
2023/10/12 02:43:32;;;;;;;10.32;6.55;;;;;;;;;;4827792;29;20402;-79
2023/10/12 02:46:22;;;;;;;13.85;7.10;;;;;;;;;;4828120;29;20485;-78
2023/10/12 02:49:07;;;;;;;8.43;6.35;;;;;;;;;;4819561;29;20163;-80
2023/10/12 02:51:52;;;;;;;8.68;6.13;;;;;;;;;;4826623;29;20046;-79
2023/10/12 02:54:55;;;;;;;9.57;6.57;;;;;;;;;;4819771;29;20041;-77
2023/10/12 02:57:41;;;;;;;8.07;6.45;;;;;;;;;;4801669;29;20056;-80
2023/10/12 03:00:38;;;;;;;10.57;6.95;;;;;;;;;;4819675;29;20050;-81
2023/10/12 03:06:23;;;;;;;11.85;6.80;;;;;;;;;;4820479;29;20085;-80
2023/10/12 03:11:56;;;;;;;12.65;7.68;;;;;;;;;;4833354;29;20416;-79
2023/10/12 03:14:42;;;;;;;11.60;6.95;;;;;;;;;;4819909;29;20411;-79
2023/10/12 03:17:28;;;;;;;11.90;7.25;;;;;;;;;;4832872;29;20061;-79
2023/10/12 03:20:22;;;;;;;11.32;7.30;;;;;;;;;;4819676;29;20497;-80
2023/10/12 03:23:19;;;;;;;10.20;6.90;;;;;;;;;;4819348;29;20489;-78
2023/10/12 03:26:20;;;;;;;11.18;7.32;;;;;;;;;;4833445;29;20049;-79
2023/10/12 03:31:57;;;;;;;11.52;6.78;;;;;;;;;;4832581;29;20072;-79
2023/10/12 03:37:45;;;;;;;12.73;7.38;;;;;;;;;;4827000;29;20131;-79
2023/10/12 03:43:34;;;;;;;17.80;10.05;;;;;;;;;;4826737;29;20405;-79
2023/10/12 03:46:28;;;;;;;24.08;13.98;;;;;;;;;;4832521;29;20073;-78
2023/10/12 03:52:27;;;;;;;26.40;13.43;;;;;;;;;;4818763;29;20485;-79
2023/10/12 03:55:28;;;;;;;24.25;12.95;;;;;;;;;;4827334;29;20501;-78
2023/10/12 03:58:15;;;;;;;19.30;10.98;;;;;;;;;;4827421;29;20048;-79
2023/10/12 04:01:35;;;;;;;16.13;10.27;;;;;;;;;;4832236;29;20409;-80
2023/10/12 04:04:34;;;;;;;14.60;7.88;;;;;;;;;;4833336;29;20414;-79
2023/10/12 04:07:19;;;;;;;13.40;8.02;;;;;;;;;;4826142;29;20064;-77
2023/10/12 04:10:14;;;;;;;14.85;7.40;;;;;;;;;;4833043;29;20410;-78
2023/10/12 04:16:10;;;;;;;11.85;7.50;;;;;;;;;;4811040;29;20398;-79
2023/10/12 04:21:52;;;;;;;15.98;8.35;;;;;;;;;;4834494;29;20414;-78
2023/10/12 04:24:42;;;;;;;14.88;7.68;;;;;;;;;;4829155;29;20076;-79
2023/10/12 04:30:32;;;;;;;10.77;7.43;;;;;;;;;;4834248;29;20052;-78
2023/10/12 04:33:18;;;;;;;17.10;7.50;;;;;;;;;;4833844;29;20481;-78
2023/10/12 04:38:57;;;;;;;14.82;8.45;;;;;;;;;;4828878;29;20413;-79
2023/10/12 04:47:19;;;;;;;19.73;7.90;;;;;;;;;;4835296;29;20405;-76
2023/10/12 04:50:07;;;;;;;16.30;7.63;;;;;;;;;;4829197;29;20501;-78
2023/10/12 04:53:07;;;;;;;11.30;7.60;;;;;;;;;;4814879;29;20045;-78
2023/10/12 04:55:57;;;;;;;13.77;7.45;;;;;;;;;;4834795;29;20068;-78
2023/10/12 04:58:56;;;;;;;11.60;6.85;;;;;;;;;;4828537;29;20402;-79
2023/10/12 05:02:04;;;;;;;23.85;14.60;;;;;;;;;;4824590;29;20072;-79
2023/10/12 05:07:48;;;;;;;30.13;21.05;;;;;;;;;;4824921;29;20434;-78
2023/10/12 05:13:21;;;;;;;23.58;15.35;;;;;;;;;;4828789;29;20405;-77
2023/10/12 05:16:06;;;;;;;27.80;17.00;;;;;;;;;;4829565;29;20049;-78
2023/10/12 05:18:52;;;;;;;35.00;18.92;;;;;;;;;;4816758;29;20052;-81
2023/10/12 05:21:38;;;;;;;21.00;12.95;;;;;;;;;;4831224;29;20413;-79
2023/10/12 05:24:22;;;;;;;23.65;12.82;;;;;;;;;;4828501;29;20064;-80
2023/10/12 05:27:23;;;;;;;18.50;9.38;;;;;;;;;;4829532;29;20060;-80
2023/10/12 05:30:16;;;;;;;21.08;8.90;;;;;;;;;;4829979;29;20393;-80
2023/10/12 05:33:05;;;;;;;18.15;9.45;;;;;;;;;;4823692;29;20052;-81
2023/10/12 05:35:52;;;;;;;11.48;7.88;;;;;;;;;;4829998;29;20132;-78
2023/10/12 05:38:39;;;;;;;17.88;7.90;;;;;;;;;;4828972;29;20393;-79
2023/10/12 05:44:17;;;;;;;14.07;7.85;;;;;;;;;;4823354;29;20076;-80
2023/10/12 05:47:03;;;;;;;14.07;6.88;;;;;;;;;;4830086;29;20065;-80
2023/10/12 05:49:50;;;;;;;11.60;6.57;;;;;;;;;;4829817;29;20041;-78
2023/10/12 05:52:38;;;;;;;11.88;7.38;;;;;;;;;;4824304;29;20513;-78
2023/10/12 05:55:23;;;;;;;9.00;6.47;;;;;;;;;;4816036;29;20410;-79
2023/10/12 05:58:11;;;;;;;13.00;6.70;;;;;;;;;;4828698;29;20049;-77
2023/10/12 06:00:56;;;;;;;14.10;8.80;;;;;;;;;;4829080;29;20406;-79
2023/10/12 06:03:46;;;;;;;15.75;7.47;;;;;;;;;;4829968;29;20073;-78
2023/10/12 06:06:35;;;;;;;13.07;7.55;;;;;;;;;;4823144;29;20102;-80
2023/10/12 06:09:35;;;;;;;18.25;7.20;;;;;;;;;;4831029;29;20065;-80
2023/10/12 06:12:24;;;;;;;15.75;7.75;;;;;;;;;;4827561;29;20070;-80
2023/10/12 06:15:10;;;;;;;18.25;7.68;;;;;;;;;;4831510;29;20108;-79
2023/10/12 06:17:55;;;;;;;19.55;8.60;;;;;;;;;;4827832;29;20053;-79
2023/10/12 06:20:46;;;;;;;11.23;7.38;;;;;;;;;;4833282;29;20064;-79
2023/10/12 06:23:32;;;;;;;14.52;7.15;;;;;;;;;;4833326;29;20049;-80
2023/10/12 06:26:29;;;;;;;13.35;7.63;;;;;;;;;;4809329;29;20057;-79
2023/10/12 06:29:25;;;;;;;12.90;7.18;;;;;;;;;;4803645;29;20502;-77
2023/10/12 06:32:17;;;;;;;16.00;7.68;;;;;;;;;;4814592;29;20061;-79
2023/10/12 06:40:49;;;;;;;15.85;8.15;;;;;;;;;;4813772;29;20081;-79
2023/10/12 06:46:25;;;;;;;12.75;8.52;;;;;;;;;;4813823;29;20057;-81
2023/10/12 06:49:22;;;;;;;14.32;8.60;;;;;;;;;;4814301;29;20191;-78
2023/10/12 06:52:13;;;;;;;15.88;8.75;;;;;;;;;;4814640;29;20406;-80
2023/10/12 06:55:00;;;;;;;15.98;9.20;;;;;;;;;;4808539;29;20060;-81
2023/10/12 06:57:52;;;;;;;19.25;9.02;;;;;;;;;;4815181;29;20061;-80
2023/10/12 07:00:59;;;;;;;20.85;9.90;;;;;;;;;;4795245;29;20073;-78
2023/10/12 07:03:43;;;;;;;15.75;10.05;;;;;;;;;;4815580;29;20510;-80
2023/10/12 07:06:28;;;;;;;17.58;9.73;;;;;;;;;;4808817;29;20398;-77
2023/10/12 07:09:14;;;;;;;15.82;10.20;;;;;;;;;;4814790;29;20057;-78
2023/10/12 07:11:59;;;;;;;28.00;10.75;;;;;;;;;;4815500;29;20056;-81
2023/10/12 07:14:47;;;;;;;24.92;10.30;;;;;;;;;;4808242;29;20057;-78
2023/10/12 07:17:32;;;;;;;15.93;10.30;;;;;;;;;;4814158;29;20517;-79
2023/10/12 07:20:27;;;;;;;18.00;10.60;;;;;;;;;;4807323;29;20438;-79
2023/10/12 07:23:16;;;;;;;22.60;9.98;;;;;;;;;;4814567;29;20057;-78
2023/10/12 07:26:07;;;;;;;13.77;8.07;;;;;;;;;;4826674;29;20076;-79
2023/10/12 07:28:56;;;;;;;22.30;8.13;;;;;;;;;;4826534;29;20397;-83
2023/10/12 07:31:42;;;;;;;16.02;8.45;;;;;;;;;;4833118;29;20135;-78
2023/10/12 07:34:27;;;;;;;18.60;7.50;;;;;;;;;;4818553;29;20064;-79
2023/10/12 07:37:13;;;;;;;17.42;7.68;;;;;;;;;;4832312;29;20048;-79
2023/10/12 07:40:14;;;;;;;16.40;7.43;;;;;;;;;;4826007;29;20064;-78
2023/10/12 07:43:04;;;;;;;22.25;7.32;;;;;;;;;;4831826;29;20069;-80
2023/10/12 07:45:50;;;;;;;18.45;7.00;;;;;;;;;;4825714;29;20057;-78
2023/10/12 07:48:44;;;;;;;21.02;7.15;;;;;;;;;;4832781;29;20056;-78
2023/10/12 07:51:53;;;;;;;19.42;7.47;;;;;;;;;;4832985;29;20060;-78
2023/10/12 07:57:37;;;;;;;16.98;8.32;;;;;;;;;;4831747;29;20078;-79
2023/10/12 08:05:59;;;;;;;23.70;8.57;;;;;;;;;;4827130;29;20053;-80
2023/10/12 08:08:45;;;;;;;16.92;8.93;;;;;;;;;;4833045;29;20425;-79
2023/10/12 08:11:34;;;;;;;19.38;9.43;;;;;;;;;;4831816;29;20505;-78
2023/10/12 08:14:39;;;;;;;14.35;7.90;;;;;;;;;;4826395;29;20405;-80
2023/10/12 08:17:25;;;;;;;12.03;8.00;;;;;;;;;;4832630;29;20070;-82
2023/10/12 08:23:17;;;;;;;13.88;8.07;;;;;;;;;;4824990;29;20560;-80
2023/10/12 08:26:03;;;;;;;17.90;8.75;;;;;;;;;;4811838;29;20510;-81
2023/10/12 08:28:55;;;;;;;15.30;8.70;;;;;;;;;;4831628;29;20057;-81
2023/10/12 08:31:43;;;;;;;13.93;8.60;;;;;;;;;;4831385;29;20405;-78
2023/10/12 08:37:26;;;;;;;12.30;6.85;;;;;;;;;;4826047;29;20042;-81
2023/10/12 08:40:22;;;;;;;13.60;6.68;;;;;;;;;;4831016;29;20520;-78
2023/10/12 08:43:09;;;;;;;10.13;6.03;;;;;;;;;;4831425;29;20461;-78
2023/10/12 08:45:54;;;;;;;13.63;6.10;;;;;;;;;;4825292;29;20332;-82
2023/10/12 08:48:52;;;;;;;11.00;6.00;;;;;;;;;;4831561;29;20580;-78
2023/10/12 08:51:38;;;;;;;12.15;6.05;;;;;;;;;;4831786;29;20076;-77
2023/10/12 08:54:27;;;;;;;12.77;6.10;;;;;;;;;;4810301;29;20413;-79
2023/10/12 08:57:19;;;;;;;15.68;6.72;;;;;;;;;;4825203;29;20072;-84
2023/10/12 09:01:07;;;;;;;12.00;6.40;;;;;;;;;;4824774;29;20053;-78
2023/10/12 09:06:19;;;;;;;14.20;6.20;;;;;;;;;;4830432;29;20061;-81
2023/10/12 09:09:05;;;;;;;16.35;6.65;;;;;;;;;;4825188;29;20064;-79
2023/10/12 09:11:59;;;;;;;10.10;6.95;;;;;;;;;;4825185;29;20285;-77
2023/10/12 09:14:45;;;;;;;12.25;7.00;;;;;;;;;;4830228;29;20101;-79
2023/10/12 09:17:32;;;;;;;11.00;6.50;;;;;;;;;;4831338;29;20564;-79
2023/10/12 09:20:28;;;;;;;13.13;7.32;;;;;;;;;;4830073;29;20064;-80
2023/10/12 09:23:15;;;;;;;7.60;5.53;;;;;;;;;;4824977;29;20060;-79
2023/10/12 09:35:13;;;;;;;13.25;5.75;;;;;;;;;;4830671;29;20104;-77
2023/10/12 09:38:00;;;;;;;9.45;5.35;;;;;;;;;;4830956;29;20401;-80
2023/10/12 09:40:52;;;;;;;10.85;5.47;;;;;;;;;;4830877;29;20053;-80
2023/10/12 09:43:39;;;;;;;12.25;5.88;;;;;;;;;;4823635;29;20065;-82
2023/10/12 09:46:27;;;;;;;11.73;5.53;;;;;;;;;;4827874;29;20414;-80
2023/10/12 09:49:22;;;;;;;10.75;5.00;;;;;;;;;;4834136;29;20057;-81
2023/10/12 09:52:13;;;;;;;16.02;5.82;;;;;;;;;;4827647;29;20064;-80
2023/10/12 09:55:07;;;;;;;9.38;4.97;;;;;;;;;;4833731;29;20513;-81
2023/10/12 09:57:52;;;;;;;10.13;5.45;;;;;;;;;;4835110;29;20505;-84
2023/10/12 10:03:50;;;;;;;14.80;5.22;;;;;;;;;;4835339;29;20053;-80
2023/10/12 10:06:38;;;;;;;10.73;4.85;;;;;;;;;;4831202;29;20052;-79
2023/10/12 10:09:37;;;;;;;11.15;5.15;;;;;;;;;;4829245;29;20064;-81
2023/10/12 10:12:23;;;;;;;15.68;5.90;;;;;;;;;;4834621;29;20068;-79
2023/10/12 10:15:14;;;;;;;12.95;5.80;;;;;;;;;;4828201;29;20060;-80
2023/10/12 10:18:01;;;;;;;11.50;6.18;;;;;;;;;;4833928;29;20401;-81
2023/10/12 10:20:56;;;;;;;8.07;4.38;;;;;;;;;;4833759;29;20052;-81
2023/10/12 10:23:52;;;;;;;9.25;4.30;;;;;;;;;;4833120;29;20057;-78
2023/10/12 10:26:39;;;;;;;13.05;4.30;;;;;;;;;;4833936;29;20046;-80
2023/10/12 10:30:00;;;;;;;8.45;4.40;;;;;;;;;;4834247;29;20532;-81
2023/10/12 10:33:04;;;;;;;11.07;4.18;;;;;;;;;;4761508;29;20472;-82
2023/10/12 10:36:13;;;;;;;7.40;4.38;;;;;;;;;;4833522;29;20493;-81
2023/10/12 10:39:03;;;;;;;7.85;4.05;;;;;;;;;;4827529;29;20061;-81
2023/10/12 10:41:54;;;;;;;8.65;3.90;;;;;;;;;;4827494;29;20045;-82
2023/10/12 10:44:43;;;;;;;6.90;4.03;;;;;;;;;;4835532;29;20524;-83
2023/10/12 10:47:32;;;;;;;9.10;4.00;;;;;;;;;;4828861;29;20053;-79
2023/10/12 10:50:20;;;;;;;5.95;3.75;;;;;;;;;;4834036;29;20498;-80
2023/10/12 10:53:08;;;;;;;10.13;4.07;;;;;;;;;;4833719;29;20699;-81
2023/10/12 10:55:53;;;;;;;7.43;3.92;;;;;;;;;;4826250;29;20417;-80
2023/10/12 10:58:39;;;;;;;7.00;4.03;;;;;;;;;;4832697;29;20053;-80
2023/10/12 11:01:26;;;;;;;7.78;3.92;;;;;;;;;;4833896;29;20462;-80
2023/10/12 11:04:18;;;;;;;7.88;3.95;;;;;;;;;;4827382;29;20375;-81
2023/10/12 11:07:04;;;;;;;5.45;3.70;;;;;;;;;;4833992;29;20049;-81
2023/10/12 11:12:37;;;;;;;8.90;4.65;;;;;;;;;;4826577;29;20041;-81
2023/10/12 11:15:24;;;;;;;8.07;4.20;;;;;;;;;;4826061;29;20375;-82
2023/10/12 11:18:17;;;;;;;9.13;4.80;;;;;;;;;;4827463;29;20370;-81
2023/10/12 11:21:04;;;;;;;9.23;4.47;;;;;;;;;;4832978;29;20050;-81
2023/10/12 11:23:51;;;;;;;13.50;5.00;;;;;;;;;;4832580;29;20045;-83
2023/10/12 11:26:57;;;;;;;8.40;5.07;;;;;;;;;;4833484;29;20401;-82
2023/10/12 11:29:51;;;;;;;8.30;4.95;;;;;;;;;;4818584;29;20054;-83
2023/10/12 11:32:53;;;;;;;10.10;4.78;;;;;;;;;;4833361;29;20404;-82
2023/10/12 11:35:43;;;;;;;7.85;4.65;;;;;;;;;;4818643;29;20402;-84
2023/10/12 11:38:27;;;;;;;7.50;4.55;;;;;;;;;;4827188;29;20458;-79
2023/10/12 11:41:13;;;;;;;8.77;3.92;;;;;;;;;;4832515;29;20053;-80
2023/10/12 11:44:03;;;;;;;8.85;4.30;;;;;;;;;;4826038;29;20379;-84
2023/10/12 11:46:49;;;;;;;7.10;4.20;;;;;;;;;;4828032;29;20049;-80
2023/10/12 11:49:47;;;;;;;5.85;4.20;;;;;;;;;;4833675;29;20489;-79
2023/10/12 11:52:34;;;;;;;7.78;3.97;;;;;;;;;;4833822;29;20381;-82
2023/10/12 11:55:19;;;;;;;7.43;3.65;;;;;;;;;;4828684;29;20045;-81
2023/10/12 11:58:07;;;;;;;6.30;3.33;;;;;;;;;;4832684;29;20053;-84
2023/10/12 12:00:52;;;;;;;8.23;3.67;;;;;;;;;;4832023;29;20050;-83
2023/10/12 12:03:39;;;;;;;10.85;3.22;;;;;;;;;;4823389;29;20422;-83
2023/10/12 12:06:26;;;;;;;7.03;3.65;;;;;;;;;;4829047;29;20402;-82
2023/10/12 12:09:14;;;;;;;9.23;4.20;;;;;;;;;;4836658;29;20474;-81
2023/10/12 12:12:00;;;;;;;6.95;3.75;;;;;;;;;;4827177;29;20045;-81
2023/10/12 12:14:48;;;;;;;10.60;3.17;;;;;;;;;;4832219;29;20054;-81
2023/10/12 12:17:35;;;;;;;7.07;3.65;;;;;;;;;;4835797;29;20056;-80
2023/10/12 12:20:23;;;;;;;8.10;3.03;;;;;;;;;;4835424;29;20053;-80
2023/10/12 12:23:10;;;;;;;7.55;3.15;;;;;;;;;;4834425;29;20050;-79
2023/10/12 12:26:14;;;;;;;16.08;3.75;;;;;;;;;;4830298;29;20442;-82
2023/10/12 12:29:09;;;;;;;6.85;3.60;;;;;;;;;;4834942;29;20505;-81
2023/10/12 12:31:56;;;;;;;6.68;3.30;;;;;;;;;;4833977;29;20474;-80
2023/10/12 12:34:42;;;;;;;8.38;3.88;;;;;;;;;;4833665;29;20053;-80
2023/10/12 12:37:37;;;;;;;11.05;3.83;;;;;;;;;;4832157;29;20045;-81
2023/10/12 12:43:10;;;;;;;9.65;4.22;;;;;;;;;;4825856;29;20100;-81
2023/10/12 12:45:57;;;;;;;7.10;3.60;;;;;;;;;;4832037;29;20056;-82
2023/10/12 12:48:48;;;;;;;7.38;3.70;;;;;;;;;;4811961;29;20329;-83
2023/10/12 12:51:34;;;;;;;9.23;4.00;;;;;;;;;;4831138;29;20045;-79
2023/10/12 12:54:20;;;;;;;10.82;3.80;;;;;;;;;;4831612;29;20058;-83
2023/10/12 12:57:06;;;;;;;7.63;3.83;;;;;;;;;;4833221;29;20541;-84
2023/10/12 12:59:52;;;;;;;11.73;3.80;;;;;;;;;;4814017;29;20481;-81
2023/10/12 13:02:37;;;;;;;13.38;4.10;;;;;;;;;;4825033;29;20049;-84
2023/10/12 13:05:22;;;;;;;11.23;4.00;;;;;;;;;;4812517;29;20049;-82
2023/10/12 13:08:11;;;;;;;9.20;4.28;;;;;;;;;;4804633;29;20060;-81
2023/10/12 13:10:57;;;;;;;7.18;4.15;;;;;;;;;;4817755;29;20490;-87
2023/10/12 13:13:42;;;;;;;8.85;4.00;;;;;;;;;;4805080;29;20045;-84
2023/10/12 13:16:26;;;;;;;8.38;4.20;;;;;;;;;;4816771;29;20462;-82
2023/10/12 13:19:17;;;;;;;15.52;4.70;;;;;;;;;;4830504;29;20066;-83
2023/10/12 13:22:02;;;;;;;11.23;4.22;;;;;;;;;;4818532;29;20060;-82
2023/10/12 13:24:49;;;;;;;7.93;3.65;;;;;;;;;;4815981;29;20421;-82
2023/10/12 13:27:34;;;;;;;18.45;3.97;;;;;;;;;;4820351;29;20045;-84
2023/10/12 13:30:22;;;;;;;11.38;4.38;;;;;;;;;;4826326;29;20049;-84
2023/10/12 13:33:11;;;;;;;18.35;5.05;;;;;;;;;;4814164;29;20405;-81
2023/10/12 13:35:55;;;;;;;11.35;3.85;;;;;;;;;;4831147;29;20057;-82
2023/10/12 13:38:41;;;;;;;14.00;4.50;;;;;;;;;;4817069;29;20056;-83
2023/10/12 13:41:27;;;;;;;7.07;4.07;;;;;;;;;;4824898;29;20401;-83
2023/10/12 13:44:13;;;;;;;13.70;5.22;;;;;;;;;;4804132;29;20500;-84
2023/10/12 13:46:58;;;;;;;9.20;4.20;;;;;;;;;;4811705;29;20497;-82
2023/10/12 13:49:44;;;;;;;12.55;3.65;;;;;;;;;;4816917;29;20379;-84
2023/10/12 13:52:30;;;;;;;9.27;4.00;;;;;;;;;;4817899;29;20056;-84
2023/10/12 13:55:15;;;;;;;11.50;4.28;;;;;;;;;;4834520;29;20387;-86
2023/10/12 13:58:00;;;;;;;7.55;3.72;;;;;;;;;;4822610;29;20064;-81
2023/10/12 14:00:51;;;;;;;9.68;4.22;;;;;;;;;;4807230;29;20465;-82
2023/10/12 14:03:35;;;;;;;12.40;4.65;;;;;;;;;;4802508;29;20049;-82
2023/10/12 14:06:21;;;;;;;8.40;4.13;;;;;;;;;;4806565;29;20060;-81
2023/10/12 14:09:11;;;;;;;9.35;4.28;;;;;;;;;;4804547;29;20053;-83
2023/10/12 14:11:57;;;;;;;11.85;4.30;;;;;;;;;;4817319;29;20049;-83
2023/10/12 14:14:42;;;;;;;14.15;4.85;;;;;;;;;;4815840;29;20478;-81
2023/10/12 14:17:27;;;;;;;12.60;5.50;;;;;;;;;;4824950;29;20397;-81
2023/10/12 14:20:13;;;;;;;12.98;4.80;;;;;;;;;;4804695;29;20694;-83
2023/10/12 14:23:05;;;;;;;11.73;4.38;;;;;;;;;;4810703;29;20520;-84
2023/10/12 14:25:51;;;;;;;7.45;3.75;;;;;;;;;;4797708;29;20521;-81
2023/10/12 14:28:36;;;;;;;10.18;4.28;;;;;;;;;;4817237;29;20045;-82
2023/10/12 14:31:21;;;;;;;6.93;4.10;;;;;;;;;;4807378;29;20498;-79
2023/10/12 14:34:08;;;;;;;10.73;4.10;;;;;;;;;;4819522;29;20050;-85
2023/10/12 14:36:54;;;;;;;11.07;4.80;;;;;;;;;;4827777;29;20054;-80
2023/10/12 14:39:39;;;;;;;7.93;4.10;;;;;;;;;;4819780;29;20056;-81
2023/10/12 14:42:26;;;;;;;10.13;4.30;;;;;;;;;;4832911;29;20045;-80
2023/10/12 14:45:15;;;;;;;15.43;4.13;;;;;;;;;;4819851;29;20401;-83
2023/10/12 14:48:00;;;;;;;12.38;4.32;;;;;;;;;;4820250;29;20422;-80
2023/10/12 14:50:47;;;;;;;7.50;4.22;;;;;;;;;;4828446;29;20048;-78
2023/10/12 14:53:32;;;;;;;16.10;4.38;;;;;;;;;;4819711;29;20049;-78
2023/10/12 14:56:23;;;;;;;13.85;4.72;;;;;;;;;;4820461;29;20057;-81
2023/10/12 14:59:08;;;;;;;19.38;5.03;;;;;;;;;;4820838;29;20080;-80
2023/10/12 15:01:54;;;;;;;15.35;5.03;;;;;;;;;;4808305;29;20482;-81
2023/10/12 15:04:41;;;;;;;17.80;4.90;;;;;;;;;;4820253;29;20073;-79
2023/10/12 15:07:27;;;;;;;26.65;5.43;;;;;;;;;;4819971;29;20061;-80
2023/10/12 15:10:13;;;;;;;15.07;5.05;;;;;;;;;;4827700;29;20068;-81
2023/10/12 15:12:58;;;;;;;13.27;4.53;;;;;;;;;;4814157;29;20406;-78
2023/10/12 15:15:47;;;;;;;17.05;5.18;;;;;;;;;;4833400;29;20058;-79
2023/10/12 15:18:34;;;;;;;18.33;5.10;;;;;;;;;;4826880;29;20045;-79
2023/10/12 15:21:21;;;;;;;17.27;4.72;;;;;;;;;;4831330;29;20053;-82
2023/10/12 15:24:06;;;;;;;12.52;4.47;;;;;;;;;;4825853;29;20410;-81
2023/10/12 15:26:52;;;;;;;11.63;4.60;;;;;;;;;;4833604;29;20061;-80
2023/10/12 15:29:40;;;;;;;19.30;4.65;;;;;;;;;;4828088;29;20413;-80
2023/10/12 15:32:25;;;;;;;21.60;4.88;;;;;;;;;;4833441;29;20064;-79
2023/10/12 15:35:12;;;;;;;15.63;5.07;;;;;;;;;;4818968;29;20064;-78
2023/10/12 15:38:00;;;;;;;17.73;5.38;;;;;;;;;;4827276;29;20065;-82
2023/10/12 15:40:45;;;;;;;16.30;5.68;;;;;;;;;;4820078;29;20069;-79
2023/10/12 15:43:31;;;;;;;15.10;5.05;;;;;;;;;;4831870;29;20394;-81
2023/10/12 15:46:17;;;;;;;16.15;6.00;;;;;;;;;;4826560;29;20061;-80
2023/10/12 15:49:02;;;;;;;19.02;6.13;;;;;;;;;;4831848;29;20134;-78
2023/10/12 15:51:47;;;;;;;14.45;6.53;;;;;;;;;;4814853;29;20068;-79
2023/10/12 15:54:33;;;;;;;18.35;8.45;;;;;;;;;;4833552;29;20473;-79
2023/10/12 15:57:19;;;;;;;18.75;9.05;;;;;;;;;;4820426;29;20397;-79
2023/10/12 16:00:08;;;;;;;18.25;7.82;;;;;;;;;;4819395;29;20405;-80
2023/10/12 16:02:55;;;;;;;18.50;8.05;;;;;;;;;;4832472;29;20473;-79
2023/10/12 16:05:42;;;;;;;14.05;6.68;;;;;;;;;;4832815;29;20326;-79
2023/10/12 16:08:26;;;;;;;21.50;6.30;;;;;;;;;;4832678;29;20406;-82
2023/10/12 16:11:16;;;;;;;15.55;6.20;;;;;;;;;;4833230;29;20056;-80
2023/10/12 16:14:01;;;;;;;21.60;7.57;;;;;;;;;;4832817;29;20512;-79
2023/10/12 16:16:50;;;;;;;21.63;8.25;;;;;;;;;;4826219;29;20416;-81
2023/10/12 16:19:35;;;;;;;23.98;9.63;;;;;;;;;;4834584;29;20513;-81
2023/10/12 16:22:21;;;;;;;21.50;10.90;;;;;;;;;;4832521;29;20421;-80
2023/10/12 16:25:09;;;;;;;27.50;11.80;;;;;;;;;;4829262;29;20619;-81
2023/10/12 16:27:54;;;;;;;30.95;11.35;;;;;;;;;;4832335;29;20060;-81
2023/10/12 16:30:41;;;;;;;21.80;11.02;;;;;;;;;;4824685;29;20413;-78
2023/10/12 16:33:26;;;;;;;19.02;10.88;;;;;;;;;;4818630;29;20597;-81
2023/10/12 16:36:11;;;;;;;18.55;9.70;;;;;;;;;;4825456;29;20513;-79
2023/10/12 16:38:56;;;;;;;19.02;9.80;;;;;;;;;;4831380;29;20887;-79
2023/10/12 16:41:43;;;;;;;20.02;10.32;;;;;;;;;;4832527;29;20083;-81
2023/10/12 16:44:29;;;;;;;23.13;11.25;;;;;;;;;;4824832;29;20056;-79
2023/10/12 16:47:14;;;;;;;21.67;11.27;;;;;;;;;;4832208;29;20068;-79
2023/10/12 16:49:59;;;;;;;19.95;10.32;;;;;;;;;;4825185;29;20493;-82
2023/10/12 16:52:48;;;;;;;27.13;11.45;;;;;;;;;;4831366;29;20057;-79
2023/10/12 16:55:34;;;;;;;18.65;10.32;;;;;;;;;;4825410;29;20179;-80
2023/10/12 16:58:20;;;;;;;23.02;9.20;;;;;;;;;;4831024;29;20065;-81
2023/10/12 17:01:06;;;;;;;13.88;8.98;;;;;;;;;;4805412;29;20402;-82
2023/10/12 17:03:52;;;;;;;17.08;7.57;;;;;;;;;;4831463;29;20072;-82
2023/10/12 17:06:37;;;;;;;18.92;8.18;;;;;;;;;;4833806;29;20568;-77
2023/10/12 17:09:22;;;;;;;13.90;7.45;;;;;;;;;;4834890;29;20072;-81
2023/10/12 17:12:10;;;;;;;14.00;6.45;;;;;;;;;;4824936;29;20060;-80
2023/10/12 17:14:58;;;;;;;16.95;7.20;;;;;;;;;;4817002;29;20500;-78
2023/10/12 17:17:42;;;;;;;15.88;7.68;;;;;;;;;;4824742;29;20073;-78
2023/10/12 17:20:28;;;;;;;18.17;7.20;;;;;;;;;;4824486;29;20057;-79
2023/10/12 17:23:15;;;;;;;16.42;7.60;;;;;;;;;;4817481;29;20068;-79
2023/10/12 17:26:00;;;;;;;14.50;7.72;;;;;;;;;;4825208;29;20061;-82
2023/10/12 17:28:47;;;;;;;17.27;7.97;;;;;;;;;;4829895;29;20064;-79
2023/10/12 17:31:33;;;;;;;15.88;7.90;;;;;;;;;;4831389;29;20424;-79
2023/10/12 17:34:20;;;;;;;12.57;7.22;;;;;;;;;;4831081;29;20485;-79
2023/10/12 17:37:05;;;;;;;16.42;7.32;;;;;;;;;;4831239;29;20509;-81
2023/10/12 17:39:51;;;;;;;16.13;7.70;;;;;;;;;;4832028;29;20401;-80
2023/10/12 17:42:37;;;;;;;17.20;7.65;;;;;;;;;;4830462;29;20072;-81
2023/10/12 17:45:22;;;;;;;15.18;7.75;;;;;;;;;;4826465;29;20470;-81
2023/10/12 17:48:07;;;;;;;16.83;7.53;;;;;;;;;;4833893;29;20057;-82
2023/10/12 17:50:52;;;;;;;18.60;7.95;;;;;;;;;;4818004;29;20392;-79
2023/10/12 17:53:37;;;;;;;33.10;15.27;;;;;;;;;;4831975;29;20568;-80
2023/10/12 17:56:21;;;;;;;41.40;16.77;;;;;;;;;;4830682;29;20406;-80
2023/10/12 17:59:07;;;;;;;36.45;16.85;;;;;;;;;;4829970;29;20068;-80
2023/10/12 18:01:54;;;;;;;32.60;16.13;;;;;;;;;;4816401;29;20501;-82
2023/10/12 18:04:39;;;;;;;36.40;18.67;;;;;;;;;;4811391;29;20080;-80
2023/10/12 18:07:26;;;;;;;41.40;20.10;;;;;;;;;;4820472;29;20786;-81
2023/10/12 18:10:15;;;;;;;48.28;22.05;;;;;;;;;;4820205;29;20052;-82
2023/10/12 18:13:00;;;;;;;59.65;27.02;;;;;;;;;;4834482;29;20073;-82